sensor_id;sensor_type;location;lat;lon;timestamp;P1;durP1;ratioP1;P2;durP2;ratioP2
12437;SDS011;6283;51.330;12.374;2023-05-07T00:01:48;9.20;;;7.67;;
12437;SDS011;6283;51.330;12.374;2023-05-07T00:04:14;10.03;;;7.97;;
12437;SDS011;6283;51.330;12.374;2023-05-07T00:06:40;10.20;;;8.03;;
12437;SDS011;6283;51.330;12.374;2023-05-07T00:09:06;10.17;;;6.90;;
12437;SDS011;6283;51.330;12.374;2023-05-07T00:11:32;8.97;;;6.93;;
12437;SDS011;6283;51.330;12.374;2023-05-07T00:13:58;10.53;;;7.30;;
12437;SDS011;6283;51.330;12.374;2023-05-07T00:16:24;9.57;;;7.30;;
12437;SDS011;6283;51.330;12.374;2023-05-07T00:18:49;8.73;;;6.63;;
12437;SDS011;6283;51.330;12.374;2023-05-07T00:21:15;9.60;;;7.10;;
12437;SDS011;6283;51.330;12.374;2023-05-07T00:23:41;9.07;;;6.57;;
12437;SDS011;6283;51.330;12.374;2023-05-07T00:26:06;8.53;;;6.50;;
12437;SDS011;6283;51.330;12.374;2023-05-07T00:28:32;7.53;;;6.30;;
12437;SDS011;6283;51.330;12.374;2023-05-07T00:30:57;8.43;;;6.60;;
12437;SDS011;6283;51.330;12.374;2023-05-07T00:33:23;8.30;;;6.03;;
12437;SDS011;6283;51.330;12.374;2023-05-07T00:35:48;7.47;;;6.30;;
12437;SDS011;6283;51.330;12.374;2023-05-07T00:38:15;6.83;;;6.10;;
12437;SDS011;6283;51.330;12.374;2023-05-07T00:40:40;8.13;;;6.47;;
12437;SDS011;6283;51.330;12.374;2023-05-07T00:43:06;7.17;;;6.10;;
12437;SDS011;6283;51.330;12.374;2023-05-07T00:45:32;7.67;;;6.40;;
12437;SDS011;6283;51.330;12.374;2023-05-07T00:47:59;8.50;;;6.53;;
12437;SDS011;6283;51.330;12.374;2023-05-07T00:50:29;6.77;;;6.07;;
12437;SDS011;6283;51.330;12.374;2023-05-07T00:52:55;8.57;;;7.20;;
12437;SDS011;6283;51.330;12.374;2023-05-07T00:55:21;9.07;;;7.30;;
12437;SDS011;6283;51.330;12.374;2023-05-07T00:57:48;8.90;;;7.40;;
12437;SDS011;6283;51.330;12.374;2023-05-07T01:00:15;8.93;;;7.43;;
12437;SDS011;6283;51.330;12.374;2023-05-07T01:02:42;10.73;;;7.73;;
12437;SDS011;6283;51.330;12.374;2023-05-07T01:05:09;8.80;;;7.23;;
12437;SDS011;6283;51.330;12.374;2023-05-07T01:07:37;9.07;;;7.60;;
12437;SDS011;6283;51.330;12.374;2023-05-07T01:10:05;10.70;;;8.63;;
12437;SDS011;6283;51.330;12.374;2023-05-07T01:12:33;12.63;;;8.93;;
12437;SDS011;6283;51.330;12.374;2023-05-07T01:15:00;11.67;;;8.83;;
12437;SDS011;6283;51.330;12.374;2023-05-07T01:17:26;13.30;;;9.30;;
12437;SDS011;6283;51.330;12.374;2023-05-07T01:19:52;12.40;;;8.67;;
12437;SDS011;6283;51.330;12.374;2023-05-07T01:22:39;10.70;;;9.20;;
12437;SDS011;6283;51.330;12.374;2023-05-07T01:25:05;14.10;;;9.43;;
12437;SDS011;6283;51.330;12.374;2023-05-07T01:27:33;11.17;;;8.50;;
12437;SDS011;6283;51.330;12.374;2023-05-07T01:30:00;11.27;;;9.00;;
12437;SDS011;6283;51.330;12.374;2023-05-07T01:32:33;10.90;;;8.83;;
12437;SDS011;6283;51.330;12.374;2023-05-07T01:35:22;10.57;;;8.30;;
12437;SDS011;6283;51.330;12.374;2023-05-07T01:37:53;11.83;;;9.20;;
12437;SDS011;6283;51.330;12.374;2023-05-07T01:40:20;13.77;;;10.50;;
12437;SDS011;6283;51.330;12.374;2023-05-07T01:42:46;12.97;;;9.23;;
12437;SDS011;6283;51.330;12.374;2023-05-07T01:45:13;12.97;;;9.80;;
12437;SDS011;6283;51.330;12.374;2023-05-07T01:47:39;12.00;;;9.37;;
12437;SDS011;6283;51.330;12.374;2023-05-07T01:50:05;11.97;;;9.13;;
12437;SDS011;6283;51.330;12.374;2023-05-07T01:52:33;11.47;;;9.43;;
12437;SDS011;6283;51.330;12.374;2023-05-07T01:54:59;12.70;;;9.87;;
12437;SDS011;6283;51.330;12.374;2023-05-07T01:57:25;12.57;;;9.90;;
12437;SDS011;6283;51.330;12.374;2023-05-07T01:59:50;12.87;;;10.20;;
12437;SDS011;6283;51.330;12.374;2023-05-07T02:02:16;14.50;;;11.27;;
12437;SDS011;6283;51.330;12.374;2023-05-07T02:04:41;13.90;;;10.90;;
12437;SDS011;6283;51.330;12.374;2023-05-07T02:07:07;15.40;;;11.60;;
12437;SDS011;6283;51.330;12.374;2023-05-07T02:09:33;14.07;;;10.50;;
12437;SDS011;6283;51.330;12.374;2023-05-07T02:11:58;14.43;;;10.90;;
12437;SDS011;6283;51.330;12.374;2023-05-07T02:14:24;13.23;;;10.63;;
12437;SDS011;6283;51.330;12.374;2023-05-07T02:16:51;14.40;;;11.10;;
12437;SDS011;6283;51.330;12.374;2023-05-07T02:19:16;13.80;;;10.97;;
12437;SDS011;6283;51.330;12.374;2023-05-07T02:21:43;13.53;;;11.63;;
12437;SDS011;6283;51.330;12.374;2023-05-07T02:24:08;17.20;;;11.93;;
12437;SDS011;6283;51.330;12.374;2023-05-07T02:26:34;16.17;;;12.23;;
12437;SDS011;6283;51.330;12.374;2023-05-07T02:29:00;15.63;;;11.47;;
12437;SDS011;6283;51.330;12.374;2023-05-07T02:31:25;15.00;;;11.80;;
12437;SDS011;6283;51.330;12.374;2023-05-07T02:33:51;14.87;;;12.07;;
12437;SDS011;6283;51.330;12.374;2023-05-07T02:36:17;15.77;;;11.77;;
12437;SDS011;6283;51.330;12.374;2023-05-07T02:38:42;15.53;;;11.70;;
12437;SDS011;6283;51.330;12.374;2023-05-07T02:41:08;14.00;;;11.30;;
12437;SDS011;6283;51.330;12.374;2023-05-07T02:43:33;14.13;;;11.00;;
12437;SDS011;6283;51.330;12.374;2023-05-07T02:48:32;14.57;;;11.23;;
12437;SDS011;6283;51.330;12.374;2023-05-07T02:50:58;15.23;;;11.87;;
12437;SDS011;6283;51.330;12.374;2023-05-07T02:53:24;14.57;;;11.33;;
12437;SDS011;6283;51.330;12.374;2023-05-07T02:55:54;14.90;;;11.57;;
12437;SDS011;6283;51.330;12.374;2023-05-07T02:58:25;13.37;;;10.63;;
12437;SDS011;6283;51.330;12.374;2023-05-07T03:00:51;16.00;;;11.30;;
12437;SDS011;6283;51.330;12.374;2023-05-07T03:03:17;14.70;;;11.57;;
12437;SDS011;6283;51.330;12.374;2023-05-07T03:05:43;13.33;;;11.00;;
12437;SDS011;6283;51.330;12.374;2023-05-07T03:08:09;12.87;;;11.37;;
12437;SDS011;6283;51.330;12.374;2023-05-07T03:10:35;11.93;;;10.57;;
12437;SDS011;6283;51.330;12.374;2023-05-07T03:13:01;14.17;;;11.70;;
12437;SDS011;6283;51.330;12.374;2023-05-07T03:15:27;13.20;;;10.87;;
12437;SDS011;6283;51.330;12.374;2023-05-07T03:17:53;13.67;;;11.83;;
12437;SDS011;6283;51.330;12.374;2023-05-07T03:20:18;13.73;;;11.20;;
12437;SDS011;6283;51.330;12.374;2023-05-07T03:22:44;13.10;;;10.93;;
12437;SDS011;6283;51.330;12.374;2023-05-07T03:25:09;13.50;;;10.87;;
12437;SDS011;6283;51.330;12.374;2023-05-07T03:27:35;12.57;;;10.37;;
12437;SDS011;6283;51.330;12.374;2023-05-07T03:30:01;13.80;;;10.47;;
12437;SDS011;6283;51.330;12.374;2023-05-07T03:32:27;12.87;;;10.63;;
12437;SDS011;6283;51.330;12.374;2023-05-07T03:34:52;13.17;;;11.13;;
12437;SDS011;6283;51.330;12.374;2023-05-07T03:37:18;13.43;;;11.17;;
12437;SDS011;6283;51.330;12.374;2023-05-07T03:39:44;13.60;;;11.50;;
12437;SDS011;6283;51.330;12.374;2023-05-07T03:42:09;13.50;;;10.93;;
12437;SDS011;6283;51.330;12.374;2023-05-07T03:44:35;15.30;;;11.20;;
12437;SDS011;6283;51.330;12.374;2023-05-07T03:47:01;13.37;;;11.00;;
12437;SDS011;6283;51.330;12.374;2023-05-07T03:49:27;11.20;;;9.73;;
12437;SDS011;6283;51.330;12.374;2023-05-07T03:51:53;12.70;;;11.20;;
12437;SDS011;6283;51.330;12.374;2023-05-07T03:54:19;12.97;;;11.03;;
12437;SDS011;6283;51.330;12.374;2023-05-07T03:56:44;12.67;;;10.47;;
12437;SDS011;6283;51.330;12.374;2023-05-07T03:59:10;12.77;;;10.47;;
12437;SDS011;6283;51.330;12.374;2023-05-07T04:01:36;13.67;;;10.77;;
12437;SDS011;6283;51.330;12.374;2023-05-07T04:04:02;12.93;;;10.33;;
12437;SDS011;6283;51.330;12.374;2023-05-07T04:06:29;13.43;;;10.40;;
12437;SDS011;6283;51.330;12.374;2023-05-07T04:08:55;14.60;;;10.30;;
12437;SDS011;6283;51.330;12.374;2023-05-07T04:11:20;17.50;;;10.57;;
12437;SDS011;6283;51.330;12.374;2023-05-07T04:13:46;13.30;;;10.77;;
12437;SDS011;6283;51.330;12.374;2023-05-07T04:16:12;13.97;;;10.70;;
12437;SDS011;6283;51.330;12.374;2023-05-07T04:18:38;13.53;;;10.53;;
12437;SDS011;6283;51.330;12.374;2023-05-07T04:21:03;13.33;;;10.90;;
12437;SDS011;6283;51.330;12.374;2023-05-07T04:23:29;12.43;;;9.70;;
12437;SDS011;6283;51.330;12.374;2023-05-07T04:25:55;13.23;;;10.43;;
12437;SDS011;6283;51.330;12.374;2023-05-07T04:28:21;12.13;;;9.73;;
12437;SDS011;6283;51.330;12.374;2023-05-07T04:30:46;13.90;;;10.43;;
12437;SDS011;6283;51.330;12.374;2023-05-07T04:33:13;13.03;;;10.13;;
12437;SDS011;6283;51.330;12.374;2023-05-07T04:35:41;13.80;;;10.80;;
12437;SDS011;6283;51.330;12.374;2023-05-07T04:38:07;13.67;;;10.93;;
12437;SDS011;6283;51.330;12.374;2023-05-07T04:40:33;14.60;;;10.13;;
12437;SDS011;6283;51.330;12.374;2023-05-07T04:43:00;14.00;;;10.87;;
12437;SDS011;6283;51.330;12.374;2023-05-07T04:45:26;12.43;;;10.30;;
12437;SDS011;6283;51.330;12.374;2023-05-07T04:47:52;15.20;;;11.17;;
12437;SDS011;6283;51.330;12.374;2023-05-07T04:50:17;12.30;;;10.20;;
12437;SDS011;6283;51.330;12.374;2023-05-07T04:52:44;13.47;;;11.00;;
12437;SDS011;6283;51.330;12.374;2023-05-07T04:55:10;16.50;;;11.03;;
12437;SDS011;6283;51.330;12.374;2023-05-07T04:57:36;14.00;;;10.83;;
12437;SDS011;6283;51.330;12.374;2023-05-07T05:00:03;14.13;;;10.10;;
12437;SDS011;6283;51.330;12.374;2023-05-07T05:02:29;14.83;;;10.53;;
12437;SDS011;6283;51.330;12.374;2023-05-07T05:04:55;13.07;;;10.20;;
12437;SDS011;6283;51.330;12.374;2023-05-07T05:07:20;11.93;;;9.77;;
12437;SDS011;6283;51.330;12.374;2023-05-07T05:09:46;13.10;;;10.13;;
12437;SDS011;6283;51.330;12.374;2023-05-07T05:12:11;13.60;;;9.83;;
12437;SDS011;6283;51.330;12.374;2023-05-07T05:14:37;13.10;;;10.07;;
12437;SDS011;6283;51.330;12.374;2023-05-07T05:17:03;10.40;;;8.90;;
12437;SDS011;6283;51.330;12.374;2023-05-07T05:19:28;13.17;;;9.00;;
12437;SDS011;6283;51.330;12.374;2023-05-07T05:21:54;11.13;;;8.57;;
12437;SDS011;6283;51.330;12.374;2023-05-07T05:24:20;12.77;;;9.00;;
12437;SDS011;6283;51.330;12.374;2023-05-07T05:26:45;11.07;;;8.43;;
12437;SDS011;6283;51.330;12.374;2023-05-07T05:29:11;11.23;;;8.73;;
12437;SDS011;6283;51.330;12.374;2023-05-07T05:31:36;9.53;;;8.27;;
12437;SDS011;6283;51.330;12.374;2023-05-07T05:34:02;9.37;;;7.83;;
12437;SDS011;6283;51.330;12.374;2023-05-07T05:36:28;9.73;;;8.10;;
12437;SDS011;6283;51.330;12.374;2023-05-07T05:38:55;11.63;;;7.50;;
12437;SDS011;6283;51.330;12.374;2023-05-07T05:41:20;9.47;;;7.40;;
12437;SDS011;6283;51.330;12.374;2023-05-07T05:43:46;9.03;;;7.53;;
12437;SDS011;6283;51.330;12.374;2023-05-07T05:46:12;8.40;;;7.50;;
12437;SDS011;6283;51.330;12.374;2023-05-07T05:48:37;9.23;;;7.00;;
12437;SDS011;6283;51.330;12.374;2023-05-07T05:51:03;7.60;;;6.80;;
12437;SDS011;6283;51.330;12.374;2023-05-07T05:53:28;7.87;;;7.07;;
12437;SDS011;6283;51.330;12.374;2023-05-07T05:55:54;9.00;;;7.10;;
12437;SDS011;6283;51.330;12.374;2023-05-07T05:58:20;8.13;;;6.90;;
12437;SDS011;6283;51.330;12.374;2023-05-07T06:00:46;8.83;;;7.10;;
12437;SDS011;6283;51.330;12.374;2023-05-07T06:03:13;9.70;;;7.20;;
12437;SDS011;6283;51.330;12.374;2023-05-07T06:05:38;8.23;;;7.43;;
12437;SDS011;6283;51.330;12.374;2023-05-07T06:08:04;9.57;;;7.70;;
12437;SDS011;6283;51.330;12.374;2023-05-07T06:10:30;9.80;;;8.07;;
12437;SDS011;6283;51.330;12.374;2023-05-07T06:12:56;9.00;;;7.50;;
12437;SDS011;6283;51.330;12.374;2023-05-07T06:15:22;9.87;;;8.00;;
12437;SDS011;6283;51.330;12.374;2023-05-07T06:17:47;10.03;;;7.67;;
12437;SDS011;6283;51.330;12.374;2023-05-07T06:20:14;10.70;;;8.40;;
12437;SDS011;6283;51.330;12.374;2023-05-07T06:22:39;10.00;;;7.73;;
12437;SDS011;6283;51.330;12.374;2023-05-07T06:25:05;10.10;;;8.37;;
12437;SDS011;6283;51.330;12.374;2023-05-07T06:27:31;10.13;;;8.27;;
12437;SDS011;6283;51.330;12.374;2023-05-07T06:29:57;9.53;;;7.83;;
12437;SDS011;6283;51.330;12.374;2023-05-07T06:32:22;8.93;;;7.03;;
12437;SDS011;6283;51.330;12.374;2023-05-07T06:34:48;10.53;;;8.20;;
12437;SDS011;6283;51.330;12.374;2023-05-07T06:37:13;9.80;;;8.10;;
12437;SDS011;6283;51.330;12.374;2023-05-07T06:39:39;10.10;;;8.40;;
12437;SDS011;6283;51.330;12.374;2023-05-07T06:42:05;9.97;;;7.90;;
12437;SDS011;6283;51.330;12.374;2023-05-07T06:44:31;10.37;;;8.23;;
12437;SDS011;6283;51.330;12.374;2023-05-07T06:46:56;12.83;;;8.40;;
12437;SDS011;6283;51.330;12.374;2023-05-07T06:49:22;10.80;;;8.50;;
12437;SDS011;6283;51.330;12.374;2023-05-07T06:51:48;9.80;;;8.50;;
12437;SDS011;6283;51.330;12.374;2023-05-07T06:54:13;8.17;;;7.33;;
12437;SDS011;6283;51.330;12.374;2023-05-07T06:56:39;12.30;;;8.43;;
12437;SDS011;6283;51.330;12.374;2023-05-07T06:59:05;9.53;;;8.03;;
12437;SDS011;6283;51.330;12.374;2023-05-07T07:01:31;8.47;;;7.40;;
12437;SDS011;6283;51.330;12.374;2023-05-07T07:03:57;11.30;;;8.30;;
12437;SDS011;6283;51.330;12.374;2023-05-07T07:06:22;9.90;;;7.20;;
12437;SDS011;6283;51.330;12.374;2023-05-07T07:08:48;8.80;;;7.90;;
12437;SDS011;6283;51.330;12.374;2023-05-07T07:11:14;7.63;;;6.83;;
12437;SDS011;6283;51.330;12.374;2023-05-07T07:13:40;8.80;;;7.53;;
12437;SDS011;6283;51.330;12.374;2023-05-07T07:16:06;11.50;;;8.07;;
12437;SDS011;6283;51.330;12.374;2023-05-07T07:18:32;7.50;;;6.57;;
12437;SDS011;6283;51.330;12.374;2023-05-07T07:20:57;7.93;;;7.13;;
12437;SDS011;6283;51.330;12.374;2023-05-07T07:23:23;9.80;;;7.70;;
12437;SDS011;6283;51.330;12.374;2023-05-07T07:25:50;7.57;;;6.87;;
12437;SDS011;6283;51.330;12.374;2023-05-07T07:28:15;6.73;;;6.03;;
12437;SDS011;6283;51.330;12.374;2023-05-07T07:30:41;6.80;;;6.13;;
12437;SDS011;6283;51.330;12.374;2023-05-07T07:33:07;6.60;;;6.00;;
12437;SDS011;6283;51.330;12.374;2023-05-07T07:35:33;6.23;;;5.63;;
12437;SDS011;6283;51.330;12.374;2023-05-07T07:37:58;7.27;;;6.07;;
12437;SDS011;6283;51.330;12.374;2023-05-07T07:40:24;6.53;;;5.83;;
12437;SDS011;6283;51.330;12.374;2023-05-07T07:42:51;6.70;;;5.83;;
12437;SDS011;6283;51.330;12.374;2023-05-07T07:45:17;7.03;;;5.73;;
12437;SDS011;6283;51.330;12.374;2023-05-07T07:47:42;7.13;;;5.90;;
12437;SDS011;6283;51.330;12.374;2023-05-07T07:50:08;6.87;;;6.17;;
12437;SDS011;6283;51.330;12.374;2023-05-07T07:52:34;6.63;;;5.13;;
12437;SDS011;6283;51.330;12.374;2023-05-07T07:55:00;6.03;;;5.43;;
12437;SDS011;6283;51.330;12.374;2023-05-07T07:57:26;5.90;;;5.40;;
12437;SDS011;6283;51.330;12.374;2023-05-07T07:59:52;7.57;;;6.60;;
12437;SDS011;6283;51.330;12.374;2023-05-07T08:02:17;5.67;;;5.17;;
12437;SDS011;6283;51.330;12.374;2023-05-07T08:04:43;5.80;;;5.20;;
12437;SDS011;6283;51.330;12.374;2023-05-07T08:07:09;6.60;;;5.37;;
12437;SDS011;6283;51.330;12.374;2023-05-07T08:09:36;7.47;;;5.10;;
12437;SDS011;6283;51.330;12.374;2023-05-07T08:12:02;5.23;;;4.73;;
12437;SDS011;6283;51.330;12.374;2023-05-07T08:14:28;5.37;;;4.87;;
12437;SDS011;6283;51.330;12.374;2023-05-07T08:16:54;6.30;;;5.70;;
12437;SDS011;6283;51.330;12.374;2023-05-07T08:19:20;5.80;;;4.97;;
12437;SDS011;6283;51.330;12.374;2023-05-07T08:21:46;5.40;;;4.90;;
12437;SDS011;6283;51.330;12.374;2023-05-07T08:24:13;5.13;;;4.73;;
12437;SDS011;6283;51.330;12.374;2023-05-07T08:26:43;5.70;;;5.20;;
12437;SDS011;6283;51.330;12.374;2023-05-07T08:29:09;4.70;;;4.20;;
12437;SDS011;6283;51.330;12.374;2023-05-07T08:31:35;4.53;;;4.13;;
12437;SDS011;6283;51.330;12.374;2023-05-07T08:34:01;5.00;;;4.50;;
12437;SDS011;6283;51.330;12.374;2023-05-07T08:36:28;5.13;;;4.70;;
12437;SDS011;6283;51.330;12.374;2023-05-07T08:38:54;4.93;;;4.53;;
12437;SDS011;6283;51.330;12.374;2023-05-07T08:41:20;4.93;;;4.47;;
12437;SDS011;6283;51.330;12.374;2023-05-07T08:43:47;5.27;;;4.77;;
12437;SDS011;6283;51.330;12.374;2023-05-07T08:46:17;4.63;;;4.23;;
12437;SDS011;6283;51.330;12.374;2023-05-07T08:48:44;5.27;;;4.60;;
12437;SDS011;6283;51.330;12.374;2023-05-07T08:51:13;5.17;;;4.67;;
12437;SDS011;6283;51.330;12.374;2023-05-07T08:53:40;5.40;;;4.90;;
12437;SDS011;6283;51.330;12.374;2023-05-07T08:56:08;5.00;;;4.43;;
12437;SDS011;6283;51.330;12.374;2023-05-07T08:58:34;5.10;;;4.60;;
12437;SDS011;6283;51.330;12.374;2023-05-07T09:01:05;5.03;;;4.60;;
12437;SDS011;6283;51.330;12.374;2023-05-07T09:03:34;6.60;;;5.20;;
12437;SDS011;6283;51.330;12.374;2023-05-07T09:06:00;5.80;;;5.20;;
12437;SDS011;6283;51.330;12.374;2023-05-07T09:08:26;5.47;;;4.93;;
12437;SDS011;6283;51.330;12.374;2023-05-07T09:10:52;5.33;;;4.70;;
12437;SDS011;6283;51.330;12.374;2023-05-07T09:13:18;7.57;;;4.93;;
12437;SDS011;6283;51.330;12.374;2023-05-07T09:15:44;5.50;;;4.70;;
12437;SDS011;6283;51.330;12.374;2023-05-07T09:18:10;4.90;;;4.50;;
12437;SDS011;6283;51.330;12.374;2023-05-07T09:20:37;5.43;;;4.93;;
12437;SDS011;6283;51.330;12.374;2023-05-07T09:23:03;5.40;;;4.83;;
12437;SDS011;6283;51.330;12.374;2023-05-07T09:25:29;5.57;;;4.87;;
12437;SDS011;6283;51.330;12.374;2023-05-07T09:27:56;5.47;;;4.97;;
12437;SDS011;6283;51.330;12.374;2023-05-07T09:30:26;4.70;;;4.30;;
12437;SDS011;6283;51.330;12.374;2023-05-07T09:32:54;4.93;;;4.43;;
12437;SDS011;6283;51.330;12.374;2023-05-07T09:35:19;5.47;;;4.90;;
12437;SDS011;6283;51.330;12.374;2023-05-07T09:37:52;5.97;;;4.90;;
12437;SDS011;6283;51.330;12.374;2023-05-07T09:40:22;5.60;;;5.00;;
12437;SDS011;6283;51.330;12.374;2023-05-07T09:42:49;5.50;;;5.00;;
12437;SDS011;6283;51.330;12.374;2023-05-07T09:45:48;5.50;;;5.00;;
12437;SDS011;6283;51.330;12.374;2023-05-07T09:48:07;5.70;;;4.33;;
12437;SDS011;6283;51.330;12.374;2023-05-07T09:50:35;4.93;;;4.53;;
12437;SDS011;6283;51.330;12.374;2023-05-07T09:53:07;4.80;;;4.40;;
12437;SDS011;6283;51.330;12.374;2023-05-07T09:55:35;4.97;;;4.50;;
12437;SDS011;6283;51.330;12.374;2023-05-07T09:58:02;5.20;;;4.70;;
12437;SDS011;6283;51.330;12.374;2023-05-07T10:00:30;5.70;;;5.13;;
12437;SDS011;6283;51.330;12.374;2023-05-07T10:02:57;4.83;;;4.23;;
12437;SDS011;6283;51.330;12.374;2023-05-07T10:05:25;5.70;;;5.20;;
12437;SDS011;6283;51.330;12.374;2023-05-07T10:07:52;5.77;;;5.20;;
12437;SDS011;6283;51.330;12.374;2023-05-07T10:10:19;5.10;;;4.70;;
12437;SDS011;6283;51.330;12.374;2023-05-07T10:12:45;4.93;;;4.43;;
12437;SDS011;6283;51.330;12.374;2023-05-07T10:15:11;5.27;;;4.40;;
12437;SDS011;6283;51.330;12.374;2023-05-07T10:17:40;4.60;;;4.20;;
12437;SDS011;6283;51.330;12.374;2023-05-07T10:20:06;5.50;;;4.13;;
12437;SDS011;6283;51.330;12.374;2023-05-07T10:22:37;4.77;;;4.20;;
12437;SDS011;6283;51.330;12.374;2023-05-07T10:25:12;4.40;;;4.03;;
12437;SDS011;6283;51.330;12.374;2023-05-07T10:27:53;4.37;;;3.97;;
12437;SDS011;6283;51.330;12.374;2023-05-07T10:30:26;4.63;;;4.10;;
12437;SDS011;6283;51.330;12.374;2023-05-07T10:32:59;4.37;;;3.63;;
12437;SDS011;6283;51.330;12.374;2023-05-07T10:35:31;4.07;;;3.77;;
12437;SDS011;6283;51.330;12.374;2023-05-07T10:38:02;4.70;;;4.30;;
12437;SDS011;6283;51.330;12.374;2023-05-07T10:40:30;4.07;;;3.73;;
12437;SDS011;6283;51.330;12.374;2023-05-07T10:42:57;4.17;;;3.77;;
12437;SDS011;6283;51.330;12.374;2023-05-07T10:45:27;5.07;;;3.93;;
12437;SDS011;6283;51.330;12.374;2023-05-07T10:50:34;3.93;;;3.50;;
12437;SDS011;6283;51.330;12.374;2023-05-07T10:55:42;3.87;;;3.57;;
12437;SDS011;6283;51.330;12.374;2023-05-07T11:00:48;4.13;;;3.70;;
12437;SDS011;6283;51.330;12.374;2023-05-07T11:03:14;5.33;;;4.20;;
12437;SDS011;6283;51.330;12.374;2023-05-07T11:05:40;5.50;;;5.00;;
12437;SDS011;6283;51.330;12.374;2023-05-07T11:08:07;5.27;;;4.77;;
12437;SDS011;6283;51.330;12.374;2023-05-07T11:19:03;6.53;;;5.20;;
12437;SDS011;6283;51.330;12.374;2023-05-07T11:24:05;5.33;;;4.87;;
12437;SDS011;6283;51.330;12.374;2023-05-07T11:26:42;4.87;;;4.43;;
12437;SDS011;6283;51.330;12.374;2023-05-07T11:29:13;4.40;;;4.00;;
12437;SDS011;6283;51.330;12.374;2023-05-07T11:31:49;4.57;;;3.63;;
12437;SDS011;6283;51.330;12.374;2023-05-07T11:34:19;4.93;;;4.43;;
12437;SDS011;6283;51.330;12.374;2023-05-07T11:36:46;5.40;;;4.53;;
12437;SDS011;6283;51.330;12.374;2023-05-07T11:39:29;5.28;;;4.60;;
12437;SDS011;6283;51.330;12.374;2023-05-07T11:41:57;5.10;;;4.60;;
12437;SDS011;6283;51.330;12.374;2023-05-07T11:44:48;5.13;;;4.63;;
12437;SDS011;6283;51.330;12.374;2023-05-07T11:47:17;5.47;;;4.63;;
12437;SDS011;6283;51.330;12.374;2023-05-07T11:49:45;5.13;;;4.18;;
12437;SDS011;6283;51.330;12.374;2023-05-07T11:52:19;5.20;;;4.70;;
12437;SDS011;6283;51.330;12.374;2023-05-07T11:54:49;5.07;;;4.50;;
12437;SDS011;6283;51.330;12.374;2023-05-07T11:57:18;4.83;;;4.37;;
12437;SDS011;6283;51.330;12.374;2023-05-07T11:59:44;5.00;;;4.50;;
12437;SDS011;6283;51.330;12.374;2023-05-07T12:02:13;5.40;;;4.90;;
12437;SDS011;6283;51.330;12.374;2023-05-07T12:04:39;5.80;;;5.00;;
12437;SDS011;6283;51.330;12.374;2023-05-07T12:07:05;5.13;;;4.63;;
12437;SDS011;6283;51.330;12.374;2023-05-07T12:09:32;5.40;;;4.90;;
12437;SDS011;6283;51.330;12.374;2023-05-07T12:12:02;6.50;;;5.20;;
12437;SDS011;6283;51.330;12.374;2023-05-07T12:14:29;5.07;;;4.67;;
12437;SDS011;6283;51.330;12.374;2023-05-07T12:16:55;6.17;;;5.23;;
12437;SDS011;6283;51.330;12.374;2023-05-07T12:19:21;5.80;;;4.97;;
12437;SDS011;6283;51.330;12.374;2023-05-07T12:21:47;7.07;;;5.70;;
12437;SDS011;6283;51.330;12.374;2023-05-07T12:24:14;5.47;;;4.97;;
12437;SDS011;6283;51.330;12.374;2023-05-07T12:26:40;5.77;;;4.57;;
12437;SDS011;6283;51.330;12.374;2023-05-07T12:29:06;6.23;;;5.10;;
12437;SDS011;6283;51.330;12.374;2023-05-07T12:31:32;4.83;;;4.30;;
12437;SDS011;6283;51.330;12.374;2023-05-07T12:33:57;4.55;;;4.03;;
12437;SDS011;6283;51.330;12.374;2023-05-07T12:36:23;6.45;;;4.53;;
12437;SDS011;6283;51.330;12.374;2023-05-07T12:38:50;4.20;;;3.85;;
12437;SDS011;6283;51.330;12.374;2023-05-07T12:41:16;4.13;;;3.72;;
12437;SDS011;6283;51.330;12.374;2023-05-07T12:43:46;5.25;;;4.75;;
12437;SDS011;6283;51.330;12.374;2023-05-07T12:46:12;6.53;;;5.35;;
12437;SDS011;6283;51.330;12.374;2023-05-07T12:48:43;5.10;;;4.60;;
12437;SDS011;6283;51.330;12.374;2023-05-07T12:51:10;5.25;;;4.75;;
12437;SDS011;6283;51.330;12.374;2023-05-07T12:53:42;4.80;;;4.40;;
12437;SDS011;6283;51.330;12.374;2023-05-07T12:56:08;5.65;;;4.60;;
12437;SDS011;6283;51.330;12.374;2023-05-07T12:58:34;4.63;;;4.22;;
12437;SDS011;6283;51.330;12.374;2023-05-07T13:01:01;4.85;;;4.00;;
12437;SDS011;6283;51.330;12.374;2023-05-07T13:03:31;5.00;;;3.80;;
12437;SDS011;6283;51.330;12.374;2023-05-07T13:05:58;5.80;;;3.97;;
12437;SDS011;6283;51.330;12.374;2023-05-07T13:08:32;4.75;;;3.70;;
12437;SDS011;6283;51.330;12.374;2023-05-07T13:11:00;5.38;;;4.15;;
12437;SDS011;6283;51.330;12.374;2023-05-07T13:13:30;4.43;;;3.95;;
12437;SDS011;6283;51.330;12.374;2023-05-07T13:15:56;6.07;;;4.20;;
12437;SDS011;6283;51.330;12.374;2023-05-07T13:18:23;4.20;;;3.90;;
12437;SDS011;6283;51.330;12.374;2023-05-07T13:20:49;4.35;;;3.95;;
12437;SDS011;6283;51.330;12.374;2023-05-07T13:23:16;4.43;;;4.03;;
12437;SDS011;6283;51.330;12.374;2023-05-07T13:25:42;4.45;;;4.05;;
12437;SDS011;6283;51.330;12.374;2023-05-07T13:28:08;4.00;;;3.70;;
12437;SDS011;6283;51.330;12.374;2023-05-07T13:30:33;4.38;;;4.00;;
12437;SDS011;6283;51.330;12.374;2023-05-07T13:32:59;4.82;;;4.20;;
12437;SDS011;6283;51.330;12.374;2023-05-07T13:35:25;4.15;;;3.80;;
12437;SDS011;6283;51.330;12.374;2023-05-07T13:37:51;4.07;;;3.75;;
12437;SDS011;6283;51.330;12.374;2023-05-07T13:40:17;3.88;;;3.58;;
12437;SDS011;6283;51.330;12.374;2023-05-07T13:42:43;4.28;;;3.88;;
12437;SDS011;6283;51.330;12.374;2023-05-07T13:45:09;6.03;;;5.13;;
12437;SDS011;6283;51.330;12.374;2023-05-07T13:47:35;4.15;;;3.65;;
12437;SDS011;6283;51.330;12.374;2023-05-07T13:50:01;3.85;;;3.50;;
12437;SDS011;6283;51.330;12.374;2023-05-07T13:52:26;4.78;;;3.63;;
12437;SDS011;6283;51.330;12.374;2023-05-07T13:54:52;3.40;;;3.10;;
12437;SDS011;6283;51.330;12.374;2023-05-07T13:57:18;3.53;;;3.22;;
12437;SDS011;6283;51.330;12.374;2023-05-07T13:59:43;3.63;;;3.25;;
12437;SDS011;6283;51.330;12.374;2023-05-07T14:02:09;3.20;;;2.92;;
12437;SDS011;6283;51.330;12.374;2023-05-07T14:04:35;3.80;;;3.50;;
12437;SDS011;6283;51.330;12.374;2023-05-07T14:07:02;3.47;;;3.17;;
12437;SDS011;6283;51.330;12.374;2023-05-07T14:09:28;3.47;;;3.17;;
12437;SDS011;6283;51.330;12.374;2023-05-07T14:11:53;3.15;;;2.95;;
12437;SDS011;6283;51.330;12.374;2023-05-07T14:14:19;3.20;;;2.97;;
12437;SDS011;6283;51.330;12.374;2023-05-07T14:16:44;2.88;;;2.67;;
12437;SDS011;6283;51.330;12.374;2023-05-07T14:19:13;3.25;;;2.75;;
12437;SDS011;6283;51.330;12.374;2023-05-07T14:21:38;3.20;;;2.90;;
12437;SDS011;6283;51.330;12.374;2023-05-07T14:24:06;3.95;;;3.10;;
12437;SDS011;6283;51.330;12.374;2023-05-07T14:26:32;2.83;;;2.63;;
12437;SDS011;6283;51.330;12.374;2023-05-07T14:28:58;2.90;;;2.70;;
12437;SDS011;6283;51.330;12.374;2023-05-07T14:31:24;2.92;;;2.60;;
12437;SDS011;6283;51.330;12.374;2023-05-07T14:33:50;4.10;;;2.42;;
12437;SDS011;6283;51.330;12.374;2023-05-07T14:36:17;4.40;;;2.60;;
12437;SDS011;6283;51.330;12.374;2023-05-07T14:38:44;2.92;;;2.72;;
12437;SDS011;6283;51.330;12.374;2023-05-07T14:41:11;3.15;;;2.70;;
12437;SDS011;6283;51.330;12.374;2023-05-07T14:43:36;2.80;;;2.60;;
12437;SDS011;6283;51.330;12.374;2023-05-07T14:46:02;3.22;;;2.65;;
12437;SDS011;6283;51.330;12.374;2023-05-07T14:48:28;4.05;;;3.38;;
12437;SDS011;6283;51.330;12.374;2023-05-07T14:50:54;2.47;;;2.28;;
12437;SDS011;6283;51.330;12.374;2023-05-07T14:53:19;3.33;;;2.80;;
12437;SDS011;6283;51.330;12.374;2023-05-07T14:55:45;2.90;;;2.70;;
12437;SDS011;6283;51.330;12.374;2023-05-07T14:58:12;3.08;;;2.85;;
12437;SDS011;6283;51.330;12.374;2023-05-07T15:00:37;2.90;;;2.70;;